createdAt,value
2022-10-13T00:00:54.053Z,13.10
2022-10-13T00:03:22.073Z,13.00
2022-10-13T00:05:53.044Z,13.10
2022-10-13T00:08:24.421Z,13.10
2022-10-13T00:10:52.868Z,13.20
2022-10-13T00:13:21.334Z,13.20
2022-10-13T00:15:49.977Z,13.20
2022-10-13T00:18:18.256Z,13.10
2022-10-13T00:20:48.468Z,13.10
2022-10-13T00:23:17.052Z,13.10
2022-10-13T00:25:47.565Z,13.10
2022-10-13T00:28:16.688Z,13.20
2022-10-13T00:30:44.804Z,13.20
2022-10-13T00:33:13.877Z,13.30
2022-10-13T00:35:43.143Z,13.30
2022-10-13T00:38:11.722Z,13.10
2022-10-13T00:40:48.457Z,13.10
2022-10-13T00:43:19.412Z,13.10
2022-10-13T00:45:50.039Z,13.10
2022-10-13T00:48:20.173Z,13.10
2022-10-13T00:50:48.592Z,13.10
2022-10-13T00:53:19.142Z,13.00
2022-10-13T00:55:49.608Z,13.10
2022-10-13T00:58:20.395Z,13.00
2022-10-13T01:00:50.801Z,13.10
2022-10-13T01:03:19.499Z,13.00
2022-10-13T01:05:48.990Z,13.10
2022-10-13T01:08:17.442Z,13.10
2022-10-13T01:10:55.778Z,13.10
2022-10-13T01:13:31.050Z,13.10
2022-10-13T01:16:04.722Z,13.00
2022-10-13T01:18:41.568Z,12.80
2022-10-13T01:21:18.639Z,12.90
2022-10-13T01:24:21.910Z,12.80
2022-10-13T01:27:09.340Z,12.80
2022-10-13T01:29:57.809Z,12.70
2022-10-13T01:32:30.974Z,12.80
2022-10-13T01:35:07.053Z,12.80
2022-10-13T01:37:44.884Z,12.80
2022-10-13T01:40:20.633Z,12.70
2022-10-13T01:42:56.261Z,12.80
2022-10-13T01:45:31.329Z,12.60
2022-10-13T01:48:02.163Z,12.70
2022-10-13T01:50:30.953Z,12.80
2022-10-13T01:53:02.917Z,12.80
2022-10-13T01:55:32.049Z,12.90
2022-10-13T01:58:00.090Z,12.90
2022-10-13T02:00:40.555Z,12.90
2022-10-13T02:03:19.231Z,12.80
2022-10-13T02:05:54.731Z,12.90
2022-10-13T02:08:29.865Z,12.80
2022-10-13T02:11:02.711Z,12.80
2022-10-13T02:13:33.801Z,12.80
2022-10-13T02:16:03.617Z,12.70
2022-10-13T02:18:35.414Z,12.80
2022-10-13T02:21:05.168Z,12.80
2022-10-13T02:23:33.341Z,12.90
2022-10-13T02:26:01.612Z,12.90
2022-10-13T02:28:30.185Z,13.00
2022-10-13T02:30:58.344Z,12.90
2022-10-13T02:33:27.860Z,12.80
2022-10-13T02:35:55.835Z,12.80
2022-10-13T02:38:23.862Z,12.70
2022-10-13T02:40:51.909Z,12.70
2022-10-13T02:43:19.922Z,12.60
2022-10-13T02:45:47.886Z,12.70
2022-10-13T02:48:15.954Z,12.60
2022-10-13T02:50:45.300Z,12.50
2022-10-13T02:53:13.337Z,12.40
2022-10-13T02:55:41.370Z,12.50
2022-10-13T02:58:09.417Z,12.50
2022-10-13T03:00:39.498Z,12.50
2022-10-13T03:03:07.863Z,12.40
2022-10-13T03:05:35.828Z,12.30
2022-10-13T03:08:05.692Z,12.40
2022-10-13T03:10:33.934Z,12.40
2022-10-13T03:13:01.984Z,12.40
2022-10-13T03:15:30.014Z,12.30
2022-10-13T03:17:58.015Z,12.20
2022-10-13T03:20:26.010Z,12.30
2022-10-13T03:22:54.030Z,12.30
2022-10-13T03:25:23.389Z,12.30
2022-10-13T03:27:51.448Z,12.40
2022-10-13T03:30:19.522Z,12.20
2022-10-13T03:32:47.577Z,12.40
2022-10-13T03:35:15.608Z,12.40
2022-10-13T03:37:43.669Z,12.40
2022-10-13T03:40:13.032Z,12.50
2022-10-13T03:42:42.423Z,12.40
2022-10-13T03:45:11.056Z,12.40
2022-10-13T03:47:39.151Z,12.40
2022-10-13T03:50:08.247Z,12.50
2022-10-13T03:52:36.281Z,12.40
2022-10-13T03:55:04.697Z,12.30
2022-10-13T03:57:32.915Z,12.30
2022-10-13T04:00:03.898Z,12.10
2022-10-13T04:02:31.941Z,12.00
2022-10-13T04:05:00.039Z,12.10
2022-10-13T04:07:28.052Z,12.00
2022-10-13T04:09:56.059Z,12.20
2022-10-13T04:12:24.337Z,12.30
2022-10-13T04:14:52.485Z,12.10
2022-10-13T04:17:21.987Z,12.20
2022-10-13T04:19:50.003Z,12.30
2022-10-13T04:22:18.435Z,12.30
2022-10-13T04:24:46.823Z,12.30
2022-10-13T04:27:16.716Z,12.10
2022-10-13T04:29:44.702Z,12.20
2022-10-13T04:32:12.735Z,12.50
2022-10-13T04:34:42.126Z,12.40
2022-10-13T04:37:10.189Z,12.40
2022-10-13T04:39:38.274Z,12.30
2022-10-13T04:42:06.761Z,12.30
2022-10-13T04:44:34.741Z,12.30
2022-10-13T04:47:02.760Z,12.40
2022-10-13T04:49:30.730Z,12.40
2022-10-13T04:52:00.122Z,12.50
2022-10-13T04:54:28.198Z,12.50
2022-10-13T04:56:56.249Z,12.40
2022-10-13T04:59:24.234Z,12.40
2022-10-13T05:01:52.349Z,12.30
2022-10-13T05:04:20.393Z,12.30
2022-10-13T05:07:15.865Z,12.20
2022-10-13T05:09:37.900Z,12.30
2022-10-13T05:12:06.237Z,12.20
2022-10-13T05:14:35.002Z,12.30
2022-10-13T05:17:03.069Z,12.40
2022-10-13T05:19:31.059Z,12.50
2022-10-13T05:21:59.092Z,12.30
2022-10-13T05:24:36.258Z,12.40
2022-10-13T05:27:07.237Z,12.30
2022-10-13T05:29:35.236Z,12.50
2022-10-13T05:32:03.425Z,12.30
2022-10-13T05:34:32.583Z,12.40
2022-10-13T05:37:01.019Z,12.40
2022-10-13T05:39:29.261Z,12.40
2022-10-13T05:41:57.709Z,12.30
2022-10-13T05:44:27.416Z,12.30
2022-10-13T05:46:55.435Z,12.40
2022-10-13T05:49:23.739Z,12.40
2022-10-13T05:51:56.630Z,12.30
2022-10-13T05:54:30.097Z,12.40
2022-10-13T05:57:01.074Z,12.20
2022-10-13T05:59:32.350Z,12.30
2022-10-13T06:02:02.302Z,12.20
2022-10-13T06:04:36.933Z,12.30
2022-10-13T06:07:05.221Z,12.30
2022-10-13T06:09:35.733Z,12.30
2022-10-13T06:12:03.774Z,12.50
2022-10-13T06:14:33.239Z,12.60
2022-10-13T06:17:01.338Z,12.40
2022-10-13T06:19:29.354Z,12.40
2022-10-13T06:22:02.602Z,12.50
2022-10-13T06:24:31.639Z,12.50
2022-10-13T06:26:59.763Z,12.50
2022-10-13T06:29:27.768Z,12.60
2022-10-13T06:31:57.180Z,12.60
2022-10-13T06:34:25.261Z,12.70
2022-10-13T06:36:53.354Z,12.70
2022-10-13T06:39:21.423Z,12.50
2022-10-13T06:41:50.484Z,12.60
2022-10-13T06:44:18.640Z,12.30
2022-10-13T06:46:46.786Z,12.30
2022-10-13T06:49:16.311Z,12.00
2022-10-13T06:51:44.336Z,12.00
2022-10-13T06:54:12.518Z,12.50
2022-10-13T06:56:40.559Z,12.70
2022-10-13T06:59:08.689Z,12.80
2022-10-13T07:01:41.365Z,12.90
2022-10-13T07:04:10.072Z,13.00
2022-10-13T07:06:39.404Z,13.20
2022-10-13T07:09:08.084Z,13.20
2022-10-13T07:11:36.463Z,13.20
2022-10-13T07:14:04.517Z,13.40
2022-10-13T07:16:33.042Z,13.50
2022-10-13T07:19:01.059Z,13.20
2022-10-13T07:21:29.259Z,13.20
2022-10-13T07:23:58.858Z,13.30
2022-10-13T07:26:27.007Z,13.50
2022-10-13T07:28:55.077Z,13.40
2022-10-13T07:31:23.272Z,13.50
2022-10-13T07:33:51.886Z,13.40
2022-10-13T07:36:20.487Z,13.50
2022-10-13T07:38:48.668Z,13.20
2022-10-13T07:41:18.407Z,13.10
2022-10-13T07:43:46.429Z,13.30
2022-10-13T07:46:14.926Z,13.10
2022-10-13T07:48:43.180Z,13.10
2022-10-13T07:51:13.254Z,13.10
2022-10-13T07:53:41.552Z,13.40
2022-10-13T07:56:12.193Z,13.50
2022-10-13T07:58:43.650Z,13.50
2022-10-13T08:01:13.124Z,13.60
2022-10-13T08:03:44.195Z,13.70
2022-10-13T08:06:15.404Z,13.70
2022-10-13T08:08:43.392Z,13.70
2022-10-13T08:11:16.657Z,13.70
2022-10-13T08:13:49.832Z,13.90
2022-10-13T08:16:17.816Z,14.00
2022-10-13T08:18:46.135Z,14.20
2022-10-13T08:21:45.740Z,14.20
2022-10-13T08:24:06.000Z,14.30
2022-10-13T08:26:34.044Z,14.50
2022-10-13T08:29:20.758Z,14.40
2022-10-13T08:34:22.730Z,14.10
2022-10-13T08:36:53.178Z,14.10
2022-10-13T08:39:22.012Z,14.10
2022-10-13T08:41:50.712Z,14.60
2022-10-13T08:45:15.703Z,14.70
2022-10-13T08:47:22.266Z,15.10
2022-10-13T08:49:50.603Z,14.90
2022-10-13T08:52:22.040Z,14.90
2022-10-13T08:54:50.930Z,14.90
2022-10-13T08:57:19.538Z,14.80
2022-10-13T08:59:49.979Z,14.80
2022-10-13T09:02:26.432Z,14.70
2022-10-13T09:04:54.716Z,14.70
2022-10-13T09:07:27.182Z,14.80
2022-10-13T09:09:55.997Z,14.80
2022-10-13T09:12:25.241Z,15.10
2022-10-13T09:15:03.321Z,15.00
2022-10-13T09:17:31.912Z,14.80
2022-10-13T09:20:02.018Z,14.60
2022-10-13T09:22:31.971Z,14.80
2022-10-13T09:25:11.874Z,15.00
2022-10-13T09:27:44.879Z,14.80
2022-10-13T09:30:27.435Z,14.70
2022-10-13T09:33:07.475Z,15.10
2022-10-13T09:35:35.783Z,15.10
2022-10-13T09:38:05.249Z,15.00
2022-10-13T09:40:33.705Z,15.10
2022-10-13T09:43:03.386Z,15.00
2022-10-13T09:45:33.030Z,15.10
2022-10-13T09:48:05.617Z,15.10
2022-10-13T09:50:36.576Z,15.10
2022-10-13T09:53:18.745Z,15.10
2022-10-13T09:55:49.519Z,15.20
2022-10-13T09:58:25.715Z,15.10
2022-10-13T10:00:56.318Z,14.40
2022-10-13T10:03:28.411Z,14.10
2022-10-13T10:05:58.780Z,14.10
2022-10-13T10:08:33.554Z,14.10
2022-10-13T10:11:13.620Z,14.40
2022-10-13T10:13:42.054Z,14.50
2022-10-13T10:16:19.441Z,14.60
2022-10-13T10:18:58.443Z,14.70
2022-10-13T10:21:34.652Z,14.80
2022-10-13T10:24:13.619Z,14.50
2022-10-13T10:26:50.284Z,14.20
2022-10-13T10:29:25.224Z,14.20
2022-10-13T10:32:06.379Z,14.20
2022-10-13T10:34:39.019Z,14.20
2022-10-13T10:37:36.228Z,14.40
2022-10-13T10:40:17.234Z,14.80
2022-10-13T10:43:05.800Z,14.90
2022-10-13T10:45:38.815Z,15.10
2022-10-13T10:48:15.718Z,14.80
2022-10-13T10:50:43.770Z,14.80
2022-10-13T10:53:18.736Z,14.50
2022-10-13T10:55:52.133Z,14.30
2022-10-13T10:58:28.844Z,14.30
2022-10-13T11:01:06.584Z,14.10
2022-10-13T11:03:44.623Z,13.90
2022-10-13T11:06:32.805Z,13.80
2022-10-13T11:09:00.786Z,13.80
2022-10-13T11:11:38.276Z,13.80
2022-10-13T11:14:30.173Z,13.90
2022-10-13T11:17:16.700Z,13.80
2022-10-13T11:19:47.797Z,14.10
2022-10-13T11:22:24.249Z,14.50
2022-10-13T11:25:18.775Z,14.90
2022-10-13T11:27:46.827Z,15.20
2022-10-13T11:30:42.157Z,15.50
2022-10-13T11:33:48.168Z,16.00
2022-10-13T11:36:36.858Z,15.40
2022-10-13T11:42:15.204Z,15.10
2022-10-13T11:44:52.427Z,15.40
2022-10-13T11:47:39.799Z,15.20
2022-10-13T11:50:19.834Z,15.10
2022-10-13T11:53:05.116Z,14.80
2022-10-13T11:55:44.682Z,14.70
2022-10-13T11:58:17.336Z,14.90
2022-10-13T12:00:53.570Z,14.70
2022-10-13T12:03:23.317Z,14.70
2022-10-13T12:05:52.015Z,14.60
2022-10-13T12:08:22.403Z,14.60
2022-10-13T12:10:57.216Z,14.80
2022-10-13T12:13:27.974Z,14.80
2022-10-13T12:16:03.174Z,14.80
2022-10-13T12:18:34.709Z,14.90
2022-10-13T12:21:05.580Z,14.80
2022-10-13T12:23:35.039Z,14.70
2022-10-13T12:26:03.406Z,14.90
2022-10-13T12:28:51.327Z,15.10
2022-10-13T12:31:22.090Z,15.00
2022-10-13T12:33:55.222Z,15.10
2022-10-13T12:36:29.358Z,15.10
2022-10-13T12:39:02.968Z,15.20
2022-10-13T12:41:32.860Z,15.10
2022-10-13T12:44:04.034Z,15.10
2022-10-13T12:46:39.993Z,14.70
2022-10-13T12:49:13.327Z,14.40
2022-10-13T12:51:41.862Z,14.50
2022-10-13T12:54:21.097Z,14.40
2022-10-13T12:56:53.777Z,14.40
2022-10-13T12:59:26.603Z,14.50
2022-10-13T13:01:59.969Z,14.60
2022-10-13T13:04:43.598Z,14.70
2022-10-13T13:07:32.378Z,14.40
2022-10-13T13:10:18.849Z,14.40
2022-10-13T13:12:48.975Z,14.10
2022-10-13T13:15:34.705Z,14.00
2022-10-13T13:18:30.285Z,14.20
2022-10-13T13:20:59.051Z,14.20
2022-10-13T13:23:33.305Z,14.50
2022-10-13T13:26:04.706Z,14.40
2022-10-13T13:28:34.166Z,14.80
2022-10-13T13:31:02.599Z,14.90
2022-10-13T13:33:30.603Z,14.70
2022-10-13T13:35:58.630Z,15.00
2022-10-13T13:38:26.674Z,15.10
2022-10-13T13:40:54.675Z,15.10
2022-10-13T13:43:24.052Z,15.10
2022-10-13T13:45:52.048Z,15.10
2022-10-13T13:48:20.072Z,15.20
2022-10-13T13:50:48.028Z,15.10
2022-10-13T13:53:16.119Z,15.20
2022-10-13T13:55:45.504Z,15.40
2022-10-13T13:58:13.513Z,15.50
2022-10-13T14:00:42.899Z,15.50
2022-10-13T14:03:10.950Z,15.50
2022-10-13T14:05:40.821Z,15.60
2022-10-13T14:08:09.214Z,15.70
2022-10-13T14:10:39.939Z,15.50
2022-10-13T14:13:08.028Z,15.40
2022-10-13T14:15:36.038Z,15.40
2022-10-13T14:18:05.591Z,15.70
2022-10-13T14:20:34.150Z,15.80
2022-10-13T14:23:02.176Z,15.70
2022-10-13T14:25:30.224Z,15.70
2022-10-13T14:27:58.238Z,15.50
2022-10-13T14:30:26.188Z,15.40
2022-10-13T14:32:54.217Z,15.40
2022-10-13T14:35:23.603Z,15.40
2022-10-13T14:37:51.700Z,15.50
2022-10-13T14:40:19.780Z,15.20
2022-10-13T14:42:47.786Z,15.10
2022-10-13T14:45:16.716Z,15.10
2022-10-13T14:47:45.094Z,15.00
2022-10-13T14:50:13.138Z,14.90
2022-10-13T14:52:42.527Z,14.80
2022-10-13T14:55:10.837Z,14.70
2022-10-13T14:57:38.854Z,14.60
2022-10-13T15:00:07.707Z,14.60
2022-10-13T15:02:35.788Z,14.50
2022-10-13T15:05:03.805Z,14.50
2022-10-13T15:07:31.917Z,14.70
2022-10-13T15:10:05.965Z,14.60
2022-10-13T15:12:34.944Z,14.70
2022-10-13T15:15:03.068Z,14.50
2022-10-13T15:17:33.130Z,14.40
2022-10-13T15:20:01.326Z,14.40
2022-10-13T15:22:29.442Z,14.50
2022-10-13T15:24:57.433Z,14.50
2022-10-13T15:27:26.887Z,14.40
2022-10-13T15:29:54.919Z,14.40
2022-10-13T15:32:23.354Z,14.40
2022-10-13T15:34:51.563Z,14.20
2022-10-13T15:37:19.627Z,14.20
2022-10-13T15:39:52.010Z,14.30
2022-10-13T15:42:22.922Z,14.40
2022-10-13T15:47:40.558Z,14.40
2022-10-13T15:50:10.078Z,14.20
2022-10-13T15:52:42.031Z,14.40
2022-10-13T15:55:11.374Z,14.40
2022-10-13T15:57:39.997Z,14.40
2022-10-13T16:00:11.864Z,14.30
2022-10-13T16:02:40.342Z,14.30
2022-10-13T16:05:10.319Z,14.40
2022-10-13T16:07:39.884Z,14.30
2022-10-13T16:10:08.962Z,14.30
2022-10-13T16:12:37.317Z,14.30
2022-10-13T16:15:06.425Z,14.40
2022-10-13T16:17:36.016Z,14.30
2022-10-13T16:20:05.074Z,14.30
2022-10-13T16:22:33.403Z,14.20
2022-10-13T16:25:01.371Z,14.20
2022-10-13T16:27:29.683Z,14.20
2022-10-13T16:29:57.773Z,14.20
2022-10-13T16:32:25.851Z,14.20
2022-10-13T16:34:55.205Z,14.00
2022-10-13T16:37:23.866Z,14.10
2022-10-13T16:39:52.292Z,14.10
2022-10-13T16:42:20.581Z,14.10
2022-10-13T16:44:48.590Z,14.20
2022-10-13T16:47:18.645Z,14.20
2022-10-13T16:49:47.708Z,14.20
2022-10-13T16:52:17.134Z,14.20
2022-10-13T16:54:45.115Z,14.10
2022-10-13T16:57:13.139Z,14.10
2022-10-13T16:59:41.483Z,14.20
2022-10-13T17:02:15.230Z,14.10
2022-10-13T17:04:43.262Z,14.10
2022-10-13T17:07:11.522Z,14.10
2022-10-13T17:09:40.894Z,14.20
2022-10-13T17:12:09.108Z,14.20
2022-10-13T17:14:37.197Z,14.20
2022-10-13T17:17:05.325Z,14.30
2022-10-13T17:19:33.377Z,14.30
2022-10-13T17:22:01.436Z,14.20
2022-10-13T17:24:29.900Z,14.20
2022-10-13T17:26:59.338Z,14.10
2022-10-13T17:29:27.484Z,14.20
2022-10-13T17:31:55.699Z,14.10
2022-10-13T17:34:23.668Z,14.10
2022-10-13T17:36:51.663Z,14.10
2022-10-13T17:39:20.073Z,14.30
2022-10-13T17:41:48.131Z,14.10
2022-10-13T17:44:20.434Z,14.10
2022-10-13T17:46:49.652Z,14.20
2022-10-13T17:49:18.201Z,14.30
2022-10-13T17:51:46.563Z,14.20
2022-10-13T17:54:16.672Z,14.20
2022-10-13T17:56:45.500Z,14.00
2022-10-13T17:59:14.266Z,14.00
2022-10-13T18:01:45.835Z,14.00
2022-10-13T18:04:15.714Z,14.00
2022-10-13T18:06:44.757Z,13.90
2022-10-13T18:09:15.202Z,13.90
2022-10-13T18:11:49.786Z,13.80
2022-10-13T18:14:19.370Z,13.70
2022-10-13T18:16:48.914Z,13.80
2022-10-13T18:19:17.147Z,13.80
2022-10-13T18:21:45.200Z,13.80
2022-10-13T18:24:13.234Z,13.80
2022-10-13T18:26:41.683Z,13.80
2022-10-13T18:29:12.331Z,13.80
2022-10-13T18:31:41.857Z,13.70
2022-10-13T18:34:13.841Z,13.90
2022-10-13T18:36:43.957Z,13.80
2022-10-13T18:39:15.158Z,13.90
2022-10-13T18:41:43.798Z,13.90
2022-10-13T18:44:12.087Z,13.90
2022-10-13T18:46:40.987Z,13.90
2022-10-13T18:49:13.988Z,14.00
2022-10-13T18:51:42.659Z,14.00
2022-10-13T18:54:11.305Z,14.00
2022-10-13T18:56:39.736Z,13.90
2022-10-13T18:59:09.455Z,14.00
2022-10-13T19:01:38.723Z,13.90
2022-10-13T19:04:07.558Z,13.90
2022-10-13T19:06:38.451Z,13.80
2022-10-13T19:09:08.338Z,13.90
2022-10-13T19:11:37.095Z,13.90
2022-10-13T19:14:07.004Z,13.90
2022-10-13T19:16:38.018Z,13.80
2022-10-13T19:19:07.933Z,13.90
2022-10-13T19:21:37.883Z,13.90
2022-10-13T19:24:06.436Z,13.90
2022-10-13T19:26:36.347Z,13.90
2022-10-13T19:29:07.283Z,14.00
2022-10-13T19:31:36.879Z,14.00
2022-10-13T19:34:05.299Z,14.10
2022-10-13T19:36:35.225Z,14.10
2022-10-13T19:39:10.764Z,14.00
2022-10-13T19:41:39.885Z,14.00
2022-10-13T19:44:08.057Z,14.10
2022-10-13T19:46:36.479Z,14.00
2022-10-13T19:49:05.047Z,14.00
2022-10-13T19:51:33.462Z,14.00
2022-10-13T19:54:01.581Z,13.90
2022-10-13T19:56:32.841Z,13.90
2022-10-13T19:59:01.708Z,14.00
2022-10-13T20:01:29.806Z,14.00
2022-10-13T20:03:57.851Z,14.00
2022-10-13T20:06:25.886Z,14.00
2022-10-13T20:08:53.921Z,14.00
2022-10-13T20:11:24.088Z,14.10
2022-10-13T20:13:54.373Z,14.10
2022-10-13T20:16:24.466Z,14.10
2022-10-13T20:18:53.560Z,14.10
2022-10-13T20:21:22.219Z,14.00
2022-10-13T20:23:51.279Z,14.00
2022-10-13T20:26:19.784Z,14.10
2022-10-13T20:28:49.714Z,14.10
2022-10-13T20:31:21.129Z,14.30
2022-10-13T20:33:50.454Z,14.20
2022-10-13T20:36:19.453Z,14.10
2022-10-13T20:38:49.230Z,14.10
2022-10-13T20:41:20.171Z,14.30
2022-10-13T20:43:49.022Z,14.20
2022-10-13T20:46:20.233Z,14.20
2022-10-13T20:49:09.958Z,14.20
2022-10-13T20:51:37.052Z,14.20
2022-10-13T20:54:05.173Z,14.10
2022-10-13T20:56:34.079Z,14.30
2022-10-13T20:59:04.150Z,14.40
2022-10-13T21:01:34.467Z,14.20
2022-10-13T21:04:02.474Z,14.40
2022-10-13T21:06:30.640Z,14.20
2022-10-13T21:08:58.792Z,14.20
2022-10-13T21:11:26.977Z,14.40
2022-10-13T21:13:55.841Z,14.20
2022-10-13T21:16:27.425Z,14.20
2022-10-13T21:18:58.362Z,14.20
2022-10-13T21:21:28.407Z,14.40
2022-10-13T21:23:57.953Z,14.20
2022-10-13T21:26:28.215Z,14.20
2022-10-13T21:28:56.551Z,14.20
2022-10-13T21:31:25.793Z,14.40
2022-10-13T21:33:54.358Z,14.30
2022-10-13T21:36:25.682Z,14.40
2022-10-13T21:38:55.534Z,14.30
2022-10-13T21:41:24.238Z,14.30
2022-10-13T21:43:53.254Z,14.40
2022-10-13T21:46:23.197Z,14.30
2022-10-13T21:48:53.368Z,14.40
2022-10-13T21:51:24.752Z,14.40
2022-10-13T21:53:54.682Z,14.50
2022-10-13T21:56:23.627Z,14.50
2022-10-13T21:58:51.638Z,14.40
2022-10-13T22:01:20.672Z,14.30
2022-10-13T22:03:49.468Z,14.30
2022-10-13T22:06:19.697Z,14.30
2022-10-13T22:08:50.929Z,14.50
2022-10-13T22:11:19.487Z,14.40
2022-10-13T22:13:47.598Z,14.20
2022-10-13T22:16:17.690Z,14.40
2022-10-13T22:18:46.308Z,14.30
2022-10-13T22:21:16.446Z,14.30
2022-10-13T22:23:45.241Z,14.40
2022-10-13T22:26:15.718Z,14.40
2022-10-13T22:28:44.261Z,14.40
2022-10-13T22:31:13.794Z,14.40
2022-10-13T22:33:43.111Z,14.40
2022-10-13T22:36:14.420Z,14.50
2022-10-13T22:38:42.465Z,14.30
2022-10-13T22:41:10.854Z,14.30
2022-10-13T22:43:40.259Z,14.40
2022-10-13T22:46:09.652Z,14.40
2022-10-13T22:48:40.756Z,14.60
2022-10-13T22:51:10.002Z,14.50
2022-10-13T22:53:38.349Z,14.40
2022-10-13T22:56:08.425Z,14.40
2022-10-13T22:58:36.943Z,14.40
2022-10-13T23:01:11.548Z,14.40
2022-10-13T23:03:40.565Z,14.50
2022-10-13T23:06:12.688Z,14.60
2022-10-13T23:08:40.975Z,14.60
2022-10-13T23:11:09.113Z,14.40
2022-10-13T23:13:37.497Z,14.50
2022-10-13T23:16:10.120Z,14.60
2022-10-13T23:18:39.690Z,14.50
2022-10-13T23:21:08.785Z,14.60
2022-10-13T23:23:36.795Z,14.40
2022-10-13T23:26:06.042Z,14.50
2022-10-13T23:28:34.489Z,14.50
2022-10-13T23:31:03.655Z,14.50
2022-10-13T23:33:32.184Z,14.50
2022-10-13T23:36:03.570Z,14.40
2022-10-13T23:38:32.667Z,14.50
2022-10-13T23:41:04.799Z,14.40
2022-10-13T23:43:32.827Z,14.50
2022-10-13T23:46:01.187Z,14.50
2022-10-13T23:48:29.849Z,14.60
2022-10-13T23:50:58.774Z,14.60
2022-10-13T23:53:28.095Z,14.60
2022-10-13T23:55:56.099Z,14.50
2022-10-13T23:58:24.085Z,14.60
